Garland Springs, Arkansas
Current Conditions -  °F | °C
As of 11:56 AM on Thursday 27 Nov 2014 (Local Time) from KSRC Reporting Station
Clear Clear  
Wind Chill: 41°   Ceiling: Unl
Heat Index: 45°   Visibility: 10mi
Dew Point: 26°   Wind: 8mph
Humidity: 48%   Direction: 30°NNE
Pressure: 30.53"   Gusts: NA
Location:  35.2847°N, 92.1468°W
Report Text: KSRC 271756Z AUTO 03007KT 10SM CLR 07/M03 A3053 RMK AO2 SLP346 T00721033 10072 21006 50001 TSNO
Loading
Personal Weather Stations






























Interactive Weather Map New forecast layout! Learn more

10-Day Weather Forecast

Advertisements
Track Severe Weather on mobile